Pashkovsky Airport

Airport
ICAO code: 
URKK
Summary
ICAO Region: 
EUR
Territory: 
Location: 
Krasnodar Krai,
Coordinates: 
Aerial View: 
45° 2' 5" N, 39° 10' 14" E
Metar
Observation
URKK 300600Z 21006MPS CAVOK 12/09 Q1005 R23L/19//65 TEMPO 24010G18MPS RMK QFE751
Station
Krasnodar
Date/Time
2021-11-30 06:00:00
Wind direction
210°
Lowest cloud amount
clouds and visibility OK
Temperature
12°C
Dew point
9°C
Humidity
81%
QNH
1005 hPa
Weather condition
n/a

Description

Also known as Pashkovsky Airport, this airport serves the souther Russian city of Krasnodar.

Climatology

Humid “subtropical” climate (Köppen climate classification Cfa) - characterized by hot, humid summers and cool winters. Significant amounts of precipitation occur in all seasons in most areas.

Runways

Designator Length Width Surface Rops
05L/23R 2200 49 ASP Yes/Yes
05R/23L 2998 44 CON Yes/Yes
Airport map: 
Aerial View: 

SKYbrary Partners:

Safety knowledge contributed by: